createdAt,value
2022-11-16T00:02:15.120Z,15.80
2022-11-16T00:04:42.117Z,12.00
2022-11-16T00:07:09.334Z,14.52
2022-11-16T00:09:36.240Z,16.77
2022-11-16T00:12:07.461Z,13.40
2022-11-16T00:14:35.382Z,16.90
2022-11-16T00:17:02.240Z,14.25
2022-11-16T00:19:29.533Z,17.92
2022-11-16T00:21:56.194Z,16.27
2022-11-16T00:24:23.602Z,16.02
2022-11-16T00:26:52.910Z,15.52
2022-11-16T00:29:22.327Z,14.35
2022-11-16T00:31:50.235Z,12.90
2022-11-16T00:34:17.525Z,14.45
2022-11-16T00:36:44.478Z,12.52
2022-11-16T00:39:12.785Z,16.60
2022-11-16T00:41:40.024Z,16.95
2022-11-16T00:44:06.760Z,12.65
2022-11-16T00:46:33.327Z,14.52
2022-11-16T00:49:00.012Z,14.70
2022-11-16T00:51:26.742Z,15.68
2022-11-16T00:53:53.323Z,15.32
2022-11-16T00:56:20.037Z,13.63
2022-11-16T00:58:46.615Z,17.77
2022-11-16T01:01:13.514Z,15.52
2022-11-16T01:03:40.174Z,13.70
2022-11-16T01:06:10.172Z,12.95
2022-11-16T01:08:40.139Z,15.32
2022-11-16T01:11:26.436Z,16.30
2022-11-16T01:13:53.385Z,19.00
2022-11-16T01:16:22.287Z,15.45
2022-11-16T01:18:53.243Z,13.25
2022-11-16T01:21:20.339Z,15.13
2022-11-16T01:23:46.956Z,15.80
2022-11-16T01:26:13.807Z,14.13
2022-11-16T01:28:40.402Z,13.23
2022-11-16T01:31:08.039Z,15.57
2022-11-16T01:33:35.649Z,15.50
2022-11-16T01:43:25.703Z,15.20
2022-11-16T01:45:52.643Z,15.73
2022-11-16T01:48:27.639Z,15.90
2022-11-16T01:50:57.485Z,16.13
2022-11-16T01:53:25.086Z,15.50
2022-11-16T01:55:52.574Z,16.65
2022-11-16T01:58:22.981Z,16.50
2022-11-16T02:00:49.673Z,15.23
2022-11-16T02:03:20.410Z,16.40
2022-11-16T02:06:07.309Z,14.30
2022-11-16T02:08:59.874Z,15.00
2022-11-16T02:11:57.103Z,14.95
2022-11-16T02:14:54.447Z,13.45
2022-11-16T02:17:41.604Z,16.48
2022-11-16T02:20:49.504Z,16.35
2022-11-16T02:23:25.474Z,16.98
2022-11-16T02:26:17.357Z,17.02
2022-11-16T02:29:05.363Z,15.57
2022-11-16T02:31:39.738Z,16.15
2022-11-16T02:34:10.024Z,16.40
2022-11-16T02:36:39.727Z,17.63
2022-11-16T02:39:16.164Z,16.15
2022-11-16T02:41:45.718Z,16.63
2022-11-16T02:44:22.625Z,14.75
2022-11-16T02:46:55.455Z,15.98
2022-11-16T02:49:23.977Z,15.27
2022-11-16T02:51:52.127Z,14.45
2022-11-16T02:54:20.684Z,15.85
2022-11-16T02:56:57.461Z,17.52
2022-11-16T02:59:27.876Z,16.73
2022-11-16T03:02:05.186Z,16.73
2022-11-16T03:04:45.390Z,17.25
2022-11-16T03:07:15.433Z,16.25
2022-11-16T03:09:44.405Z,17.08
2022-11-16T03:12:15.250Z,15.20
2022-11-16T03:15:01.259Z,15.47
2022-11-16T03:17:31.494Z,18.23
2022-11-16T03:20:07.524Z,18.73
2022-11-16T03:22:44.923Z,17.70
2022-11-16T03:25:14.026Z,18.33
2022-11-16T03:27:54.435Z,17.42
2022-11-16T03:30:25.683Z,19.73
2022-11-16T03:32:57.670Z,16.50
2022-11-16T03:35:37.229Z,16.25
2022-11-16T03:38:06.251Z,19.60
2022-11-16T03:40:35.604Z,17.50
2022-11-16T03:43:04.219Z,17.85
2022-11-16T03:45:31.850Z,15.73
2022-11-16T03:47:58.759Z,18.00
2022-11-16T03:50:25.475Z,19.90
2022-11-16T03:52:52.069Z,15.93
2022-11-16T03:55:18.940Z,18.52
2022-11-16T03:57:45.499Z,15.60
2022-11-16T04:00:12.704Z,21.35
2022-11-16T04:02:39.294Z,16.52
2022-11-16T04:05:24.653Z,15.52
2022-11-16T04:08:09.908Z,15.43
2022-11-16T04:10:55.230Z,14.13
2022-11-16T04:13:46.740Z,20.77
2022-11-16T04:16:32.082Z,15.63
2022-11-16T04:19:17.458Z,13.75
2022-11-16T04:22:07.972Z,14.50
2022-11-16T04:24:38.188Z,16.10
2022-11-16T04:27:27.309Z,15.70
2022-11-16T04:29:55.789Z,13.80
2022-11-16T04:36:27.627Z,15.60
2022-11-16T04:38:54.223Z,12.93
2022-11-16T04:41:39.238Z,12.45
2022-11-16T04:44:05.881Z,12.05
2022-11-16T04:46:51.495Z,14.48
2022-11-16T04:49:18.073Z,14.15
2022-11-16T04:51:44.716Z,12.15
2022-11-16T04:54:11.293Z,12.80
2022-11-16T04:56:37.890Z,13.65
2022-11-16T04:59:04.492Z,11.90
2022-11-16T05:01:49.663Z,14.38
2022-11-16T05:04:16.267Z,12.13
2022-11-16T05:06:42.871Z,10.73
2022-11-16T05:09:09.519Z,10.20
2022-11-16T05:11:36.108Z,10.38
2022-11-16T05:14:02.775Z,9.90
2022-11-16T05:16:29.388Z,13.35
2022-11-16T05:19:14.713Z,11.52
2022-11-16T05:21:41.327Z,9.85
2022-11-16T05:24:26.535Z,11.57
2022-11-16T05:26:53.248Z,10.55
2022-11-16T05:29:19.826Z,13.27
2022-11-16T05:31:46.991Z,12.93
2022-11-16T05:34:13.695Z,11.07
2022-11-16T05:36:40.488Z,14.90
2022-11-16T05:39:07.213Z,16.63
2022-11-16T05:41:33.886Z,12.50
2022-11-16T05:44:00.566Z,13.68
2022-11-16T05:46:27.185Z,14.50
2022-11-16T05:48:53.753Z,13.20
2022-11-16T05:51:20.649Z,12.85
2022-11-16T05:53:49.203Z,13.48
2022-11-16T05:56:16.558Z,15.07
2022-11-16T05:58:44.116Z,13.80
2022-11-16T06:01:10.730Z,13.65
2022-11-16T06:03:37.462Z,16.20
2022-11-16T06:06:04.961Z,14.88
2022-11-16T06:08:31.837Z,18.77
2022-11-16T06:11:06.267Z,14.32
2022-11-16T06:13:33.310Z,12.23
2022-11-16T06:16:01.099Z,17.88
2022-11-16T06:18:27.822Z,14.82
2022-11-16T06:20:54.859Z,16.73
2022-11-16T06:23:21.894Z,17.48
2022-11-16T06:25:54.386Z,17.38
2022-11-16T06:28:21.795Z,14.48
2022-11-16T06:30:48.720Z,16.58
2022-11-16T06:33:16.033Z,15.88
2022-11-16T06:35:43.222Z,15.20
2022-11-16T06:38:10.229Z,13.40
2022-11-16T06:40:38.165Z,19.08
2022-11-16T06:43:04.861Z,16.08
2022-11-16T06:45:31.430Z,13.65
2022-11-16T06:47:58.002Z,17.38
2022-11-16T06:50:24.555Z,16.60
2022-11-16T06:52:51.114Z,15.05
2022-11-16T06:55:17.815Z,15.70
2022-11-16T06:57:46.151Z,17.20
2022-11-16T07:00:13.384Z,23.30
2022-11-16T07:02:40.392Z,20.80
2022-11-16T07:05:07.696Z,17.88
2022-11-16T07:07:34.328Z,16.30
2022-11-16T07:10:00.915Z,16.27
2022-11-16T07:12:27.625Z,17.80
2022-11-16T07:14:54.191Z,16.40
2022-11-16T07:17:20.811Z,17.95
2022-11-16T07:19:47.383Z,16.83
2022-11-16T07:22:14.005Z,17.55
2022-11-16T07:24:40.564Z,19.38
2022-11-16T07:27:08.412Z,14.18
2022-11-16T07:29:35.026Z,15.32
2022-11-16T07:32:01.633Z,16.40
2022-11-16T07:34:28.198Z,14.52
2022-11-16T07:36:54.763Z,16.02
2022-11-16T07:39:21.815Z,14.90
2022-11-16T07:41:50.305Z,11.27
2022-11-16T07:44:16.976Z,12.52
2022-11-16T07:46:47.074Z,11.27
2022-11-16T07:49:15.923Z,10.90
2022-11-16T07:51:42.856Z,10.93
2022-11-16T07:54:12.660Z,12.82
2022-11-16T07:56:39.326Z,13.55
2022-11-16T07:59:06.060Z,12.82
2022-11-16T08:01:33.354Z,9.63
2022-11-16T08:04:01.752Z,10.73
2022-11-16T08:06:30.532Z,13.40
2022-11-16T08:08:58.795Z,12.82
2022-11-16T08:11:26.484Z,12.23
2022-11-16T08:13:53.098Z,10.57
2022-11-16T08:16:21.788Z,7.85
2022-11-16T08:18:48.946Z,9.63
2022-11-16T08:21:17.425Z,10.13
2022-11-16T08:23:46.818Z,12.85
2022-11-16T08:26:18.773Z,11.13
2022-11-16T08:28:47.220Z,9.82
2022-11-16T08:31:16.947Z,10.40
2022-11-16T08:33:43.544Z,12.02
2022-11-16T08:36:17.437Z,9.93
2022-11-16T08:38:45.094Z,9.88
2022-11-16T08:41:12.219Z,10.35
2022-11-16T08:43:40.323Z,11.52
2022-11-16T08:46:09.130Z,7.38
2022-11-16T08:48:37.391Z,8.02
2022-11-16T08:51:19.275Z,10.00
2022-11-16T08:53:48.197Z,11.00
2022-11-16T08:56:16.258Z,9.27
2022-11-16T08:58:44.145Z,10.82
2022-11-16T09:01:13.886Z,13.18
2022-11-16T09:03:41.486Z,8.30
2022-11-16T09:06:09.459Z,10.32
2022-11-16T09:08:37.635Z,14.02
2022-11-16T09:11:10.596Z,14.30
2022-11-16T09:13:37.471Z,8.85
2022-11-16T09:16:04.773Z,6.53
2022-11-16T09:18:32.227Z,7.07
2022-11-16T09:20:59.551Z,10.30
2022-11-16T09:23:26.139Z,10.23
2022-11-16T09:25:53.443Z,14.45
2022-11-16T09:28:21.545Z,14.85
2022-11-16T09:30:50.576Z,12.68
2022-11-16T09:33:17.449Z,8.63
2022-11-16T09:35:44.137Z,13.70
2022-11-16T09:38:12.690Z,14.20
2022-11-16T09:40:46.013Z,10.70
2022-11-16T09:43:31.013Z,15.82
2022-11-16T09:46:33.111Z,13.85
2022-11-16T09:49:02.648Z,12.10
2022-11-16T09:51:33.742Z,7.78
2022-11-16T09:54:16.195Z,14.73
2022-11-16T09:56:44.012Z,8.70
2022-11-16T09:59:22.735Z,11.32
2022-11-16T10:02:07.833Z,14.65
2022-11-16T10:04:57.727Z,13.30
2022-11-16T10:07:31.444Z,12.93
2022-11-16T10:09:58.203Z,7.00
2022-11-16T10:12:51.922Z,12.13
2022-11-16T10:15:42.858Z,9.32
2022-11-16T10:18:32.895Z,10.57
2022-11-16T10:21:12.889Z,11.65
2022-11-16T10:23:56.725Z,8.32
2022-11-16T10:26:48.719Z,8.05
2022-11-16T10:29:24.469Z,8.30
2022-11-16T10:32:18.143Z,10.60
2022-11-16T10:34:53.507Z,8.77
2022-11-16T10:37:21.610Z,11.35
2022-11-16T10:39:50.675Z,10.80
2022-11-16T10:42:26.604Z,10.20
2022-11-16T10:44:59.766Z,10.85
2022-11-16T10:47:51.863Z,10.90
2022-11-16T10:53:00.592Z,7.35
2022-11-16T10:55:28.689Z,12.50
2022-11-16T10:58:01.743Z,10.40
2022-11-16T11:00:37.266Z,7.15
2022-11-16T11:03:04.055Z,8.25
2022-11-16T11:05:31.174Z,7.22
2022-11-16T11:08:03.765Z,7.82
2022-11-16T11:10:31.829Z,9.65
2022-11-16T11:13:26.747Z,6.93
2022-11-16T11:16:14.913Z,8.70
2022-11-16T11:18:42.514Z,5.40
2022-11-16T11:21:20.826Z,7.60
2022-11-16T11:23:53.511Z,6.80
2022-11-16T11:26:37.182Z,8.80
2022-11-16T11:29:23.722Z,9.93
2022-11-16T11:31:57.517Z,8.82
2022-11-16T11:34:30.166Z,11.15
2022-11-16T11:37:00.711Z,4.95
2022-11-16T11:39:37.156Z,5.90
2022-11-16T11:42:06.603Z,5.65
2022-11-16T11:44:57.220Z,8.00
2022-11-16T11:47:56.313Z,9.93
2022-11-16T11:50:36.947Z,7.10
2022-11-16T11:53:31.891Z,6.85
2022-11-16T11:55:59.663Z,8.52
2022-11-16T11:58:36.780Z,9.50
2022-11-16T12:01:25.271Z,5.47
2022-11-16T12:04:13.898Z,10.75
2022-11-16T12:07:14.281Z,7.00
2022-11-16T12:09:54.805Z,10.55
2022-11-16T12:12:30.368Z,10.63
2022-11-16T12:15:06.187Z,9.40
2022-11-16T12:18:11.486Z,4.97
2022-11-16T12:21:04.614Z,7.15
2022-11-16T12:24:09.214Z,10.32
2022-11-16T12:26:48.826Z,8.30
2022-11-16T12:29:49.953Z,6.25
2022-11-16T12:32:32.104Z,6.15
2022-11-16T12:35:29.714Z,8.98
2022-11-16T12:38:27.517Z,8.13
2022-11-16T12:40:59.942Z,7.43
2022-11-16T12:43:43.427Z,10.68
2022-11-16T12:46:19.565Z,6.47
2022-11-16T12:48:48.918Z,6.07
2022-11-16T12:51:48.314Z,7.20
2022-11-16T12:55:23.972Z,5.90
2022-11-16T12:57:57.025Z,5.25
2022-11-16T13:00:23.656Z,10.23
2022-11-16T13:03:27.334Z,5.32
2022-11-16T13:06:02.361Z,4.63
2022-11-16T13:08:37.866Z,6.93
2022-11-16T13:11:27.203Z,4.63
2022-11-16T13:13:59.930Z,6.68
2022-11-16T13:16:27.393Z,6.95
2022-11-16T13:18:55.623Z,5.75
2022-11-16T13:21:43.716Z,5.32
2022-11-16T13:24:16.206Z,5.03
2022-11-16T13:27:24.383Z,8.15
2022-11-16T13:30:00.765Z,4.40
2022-11-16T13:32:34.821Z,6.25
2022-11-16T13:35:05.231Z,4.85
2022-11-16T13:37:37.916Z,8.18
2022-11-16T13:40:04.608Z,4.45
2022-11-16T13:42:57.289Z,8.88
2022-11-16T13:45:24.515Z,6.72
2022-11-16T13:47:56.876Z,7.18
2022-11-16T13:50:34.547Z,6.50
2022-11-16T13:56:09.355Z,5.25
2022-11-16T13:58:43.555Z,6.60
2022-11-16T14:01:15.839Z,7.75
2022-11-16T14:03:48.186Z,5.68
2022-11-16T14:06:23.821Z,7.65
2022-11-16T14:08:54.962Z,6.00
2022-11-16T14:11:28.710Z,7.30
2022-11-16T14:13:55.729Z,5.20
2022-11-16T14:16:22.688Z,2.78
2022-11-16T14:18:53.752Z,6.68
2022-11-16T14:21:20.395Z,8.75
2022-11-16T14:24:01.990Z,4.53
2022-11-16T14:26:40.418Z,8.80
2022-11-16T14:29:25.910Z,8.65
2022-11-16T14:31:58.257Z,3.72
2022-11-16T14:34:31.568Z,5.35
2022-11-16T14:37:00.013Z,6.30
2022-11-16T14:39:37.396Z,5.82
2022-11-16T14:42:14.832Z,5.25
2022-11-16T14:44:43.018Z,8.10
2022-11-16T14:47:30.558Z,8.75
2022-11-16T14:49:57.554Z,4.72
2022-11-16T14:52:36.419Z,14.02
2022-11-16T14:55:09.411Z,7.22
2022-11-16T14:57:36.351Z,12.23
2022-11-16T15:00:18.106Z,5.97
2022-11-16T15:02:55.276Z,5.60
2022-11-16T15:05:29.580Z,6.50
2022-11-16T15:10:28.211Z,5.18
2022-11-16T15:12:56.797Z,6.97
2022-11-16T15:15:29.289Z,6.50
2022-11-16T15:18:07.511Z,9.02
2022-11-16T15:20:37.367Z,5.75
2022-11-16T15:23:05.924Z,8.27
2022-11-16T15:25:37.152Z,6.28
2022-11-16T15:28:25.949Z,5.00
2022-11-16T15:31:04.458Z,10.00
2022-11-16T15:33:33.274Z,7.25
2022-11-16T15:36:00.143Z,6.93
2022-11-16T15:38:30.103Z,7.03
2022-11-16T15:40:59.821Z,7.95
2022-11-16T15:43:49.662Z,7.20
2022-11-16T15:46:23.286Z,10.13
2022-11-16T15:48:50.414Z,9.23
2022-11-16T15:51:23.022Z,8.95
2022-11-16T15:53:54.779Z,6.38
2022-11-16T15:58:55.904Z,7.72
2022-11-16T16:01:23.575Z,8.15
2022-11-16T16:04:01.300Z,5.93
2022-11-16T16:06:52.200Z,6.60
2022-11-16T16:09:34.029Z,9.77
2022-11-16T16:12:20.698Z,5.45
2022-11-16T16:14:49.118Z,8.82
2022-11-16T16:17:27.310Z,8.07
2022-11-16T16:19:57.795Z,6.47
2022-11-16T16:22:28.389Z,9.10
2022-11-16T16:24:55.368Z,5.10
2022-11-16T16:27:24.873Z,8.18
2022-11-16T16:29:53.307Z,9.38
2022-11-16T16:32:19.805Z,6.13
2022-11-16T16:34:46.405Z,6.43
2022-11-16T16:37:13.534Z,6.78
2022-11-16T16:39:40.888Z,6.55
2022-11-16T16:42:11.494Z,7.65
2022-11-16T16:44:38.811Z,7.05
2022-11-16T16:47:05.520Z,8.90
2022-11-16T16:49:32.179Z,9.20
2022-11-16T16:51:58.926Z,8.60
2022-11-16T16:54:25.552Z,7.10
2022-11-16T16:56:52.196Z,7.18
2022-11-16T16:59:18.814Z,11.00
2022-11-16T17:01:45.412Z,10.65
2022-11-16T17:04:11.958Z,6.43
2022-11-16T17:06:42.392Z,10.38
2022-11-16T17:09:12.963Z,11.95
2022-11-16T17:11:39.557Z,9.88
2022-11-16T17:14:07.715Z,12.38
2022-11-16T17:16:35.478Z,11.90
2022-11-16T17:19:03.589Z,12.48
2022-11-16T17:21:30.548Z,10.85
2022-11-16T17:23:57.410Z,13.60
2022-11-16T17:26:28.033Z,7.97
2022-11-16T17:28:56.320Z,11.98
2022-11-16T17:31:24.480Z,13.35
2022-11-16T17:33:51.700Z,8.60
2022-11-16T17:36:18.580Z,6.95
2022-11-16T17:38:45.426Z,6.78
2022-11-16T17:41:17.924Z,10.77
2022-11-16T17:43:46.230Z,17.00
2022-11-16T17:46:15.191Z,10.25
2022-11-16T17:48:43.691Z,8.52
2022-11-16T17:51:17.473Z,9.93
2022-11-16T17:53:44.423Z,12.23
2022-11-16T17:56:13.071Z,11.23
2022-11-16T17:58:40.149Z,10.80
2022-11-16T18:01:06.884Z,11.73
2022-11-16T18:03:37.462Z,9.23
2022-11-16T18:06:16.189Z,7.70
2022-11-16T18:08:46.152Z,6.78
2022-11-16T18:11:18.082Z,11.32
2022-11-16T18:13:45.644Z,9.82
2022-11-16T18:16:15.107Z,7.10
2022-11-16T18:18:42.787Z,10.13
2022-11-16T18:21:10.356Z,7.38
2022-11-16T18:23:38.174Z,8.93
2022-11-16T18:26:13.562Z,11.73
2022-11-16T18:28:41.154Z,11.85
2022-11-16T18:31:12.828Z,14.02
2022-11-16T18:33:39.889Z,12.52
2022-11-16T18:36:07.600Z,6.45
2022-11-16T18:38:34.810Z,10.90
2022-11-16T18:41:15.522Z,7.13
2022-11-16T18:43:52.356Z,12.10
2022-11-16T18:46:20.930Z,7.15
2022-11-16T18:48:47.986Z,10.43
2022-11-16T18:51:16.187Z,8.82
2022-11-16T18:53:43.267Z,13.98
2022-11-16T18:56:11.705Z,9.75
2022-11-16T18:58:54.407Z,10.98
2022-11-16T19:01:23.647Z,7.05
2022-11-16T19:03:51.587Z,10.63
2022-11-16T19:06:18.910Z,8.55
2022-11-16T19:08:50.523Z,9.02
2022-11-16T19:11:22.760Z,8.27
2022-11-16T19:13:54.083Z,8.00
2022-11-16T19:16:21.202Z,7.32
2022-11-16T19:18:47.940Z,5.85
2022-11-16T19:21:16.148Z,11.77
2022-11-16T19:23:47.617Z,8.68
2022-11-16T19:26:15.945Z,8.07
2022-11-16T19:28:45.034Z,7.90
2022-11-16T19:31:11.559Z,9.85
2022-11-16T19:33:38.940Z,7.45
2022-11-16T19:36:10.378Z,12.65
2022-11-16T19:38:37.533Z,8.80
2022-11-16T19:41:04.883Z,8.10
2022-11-16T19:43:32.063Z,7.07
2022-11-16T19:46:06.602Z,8.02
2022-11-16T19:48:33.286Z,6.10
2022-11-16T19:51:11.422Z,5.45
2022-11-16T19:53:39.242Z,9.48
2022-11-16T19:56:08.239Z,5.88
2022-11-16T19:58:36.848Z,5.97
2022-11-16T20:01:15.665Z,6.25
2022-11-16T20:03:42.371Z,6.55
2022-11-16T20:06:14.805Z,9.75
2022-11-16T20:08:43.060Z,7.90
2022-11-16T20:11:14.631Z,5.75
2022-11-16T20:13:42.410Z,8.80
2022-11-16T20:16:11.240Z,7.57
2022-11-16T20:18:38.711Z,6.75
2022-11-16T20:21:06.734Z,6.13
2022-11-16T20:23:37.527Z,6.32
2022-11-16T20:26:12.038Z,8.07
2022-11-16T20:28:40.751Z,8.27
2022-11-16T20:31:13.717Z,6.22
2022-11-16T20:33:41.285Z,5.05
2022-11-16T20:36:10.151Z,5.63
2022-11-16T20:38:38.410Z,5.13
2022-11-16T20:41:12.931Z,5.50
2022-11-16T20:43:40.495Z,6.03
2022-11-16T20:46:09.112Z,4.82
2022-11-16T20:48:36.502Z,4.47
2022-11-16T20:51:03.350Z,6.22
2022-11-16T20:53:29.985Z,6.85
2022-11-16T20:55:57.508Z,4.85
2022-11-16T20:58:24.967Z,6.57
2022-11-16T21:00:51.645Z,6.28
2022-11-16T21:03:18.270Z,8.20
2022-11-16T21:05:46.243Z,5.38
2022-11-16T21:08:13.179Z,4.35
2022-11-16T21:10:39.996Z,6.05
2022-11-16T21:13:30.379Z,4.38
2022-11-16T21:15:58.721Z,4.60
2022-11-16T21:18:30.516Z,7.28
2022-11-16T21:21:01.931Z,4.90
2022-11-16T21:23:30.121Z,5.40
2022-11-16T21:26:03.142Z,3.65
2022-11-16T21:28:30.083Z,5.90
2022-11-16T21:30:58.933Z,9.43
2022-11-16T21:33:25.606Z,3.10
2022-11-16T21:35:54.232Z,6.10
2022-11-16T21:38:22.311Z,6.25
2022-11-16T21:40:50.162Z,10.75
2022-11-16T21:43:17.188Z,6.38
2022-11-16T21:45:45.414Z,5.65
2022-11-16T21:48:12.093Z,4.80
2022-11-16T21:50:38.937Z,3.22
2022-11-16T21:53:06.621Z,4.82
2022-11-16T21:55:33.529Z,6.20
2022-11-16T21:58:00.699Z,6.85
2022-11-16T22:00:27.749Z,6.68
2022-11-16T22:02:54.366Z,5.35
2022-11-16T22:05:39.501Z,7.18
2022-11-16T22:08:11.584Z,4.75
2022-11-16T22:10:38.241Z,5.53
2022-11-16T22:13:04.850Z,3.65
2022-11-16T22:15:31.395Z,7.13
2022-11-16T22:17:57.944Z,3.60
2022-11-16T22:20:24.515Z,10.05
2022-11-16T22:22:51.084Z,4.03
2022-11-16T22:25:18.481Z,5.32
2022-11-16T22:28:13.790Z,6.28
2022-11-16T22:30:34.808Z,8.18
2022-11-16T22:33:01.359Z,8.40
2022-11-16T22:35:28.005Z,7.28
2022-11-16T22:37:55.876Z,6.82
2022-11-16T22:40:22.476Z,12.65
2022-11-16T22:42:49.076Z,7.07
2022-11-16T22:45:15.849Z,5.15
2022-11-16T22:47:42.402Z,6.10
2022-11-16T22:50:09.202Z,3.17
2022-11-16T22:52:35.764Z,7.40
2022-11-16T22:55:02.310Z,5.15
2022-11-16T22:57:28.860Z,6.78
2022-11-16T22:59:55.435Z,7.97
2022-11-16T23:02:22.030Z,9.60
2022-11-16T23:04:48.649Z,8.02
2022-11-16T23:07:15.272Z,9.07
2022-11-16T23:09:41.859Z,7.82
2022-11-16T23:12:27.336Z,7.13
2022-11-16T23:15:12.660Z,12.82
2022-11-16T23:17:39.230Z,7.95
2022-11-16T23:20:24.858Z,6.97
2022-11-16T23:23:10.223Z,5.28
2022-11-16T23:25:55.681Z,10.00
2022-11-16T23:28:22.310Z,6.53
2022-11-16T23:30:48.928Z,5.00
2022-11-16T23:33:15.536Z,9.65
2022-11-16T23:35:42.094Z,6.57
2022-11-16T23:38:09.064Z,9.35
2022-11-16T23:40:39.895Z,9.95
2022-11-16T23:43:28.478Z,9.93
2022-11-16T23:45:55.084Z,11.98
2022-11-16T23:48:21.671Z,6.57
2022-11-16T23:50:48.310Z,8.90
2022-11-16T23:53:14.874Z,6.38
2022-11-16T23:55:41.599Z,8.05
2022-11-16T23:58:13.439Z,5.90
